Hartland Point — ZIQS6 — position and weather

sailwx.info

Track history (hours):
 
Tides and Currents Weather Stations Pressure Air Temp Water Temp Dewpoint Dewpoint Depression Visibility Wind Speed Wind Dir Waves Ship Positions

Hartland Point

Last reported at 2015-May-26 21:34 UTC. Time now 2015-May-29 14:26 UTC.
Position N 30°38' E 032°20'.

Length 193 m; draft 5.7 m.

Type: Ship. MMSI: 235505000.

Date/timePositionNaut miles runAvg speedWind from/ knotsBaromVisibWave heightAir tempDewpointWater temp
2015-May-26 21:34N 30°38' E 032°20'8 7.8
2015-May-26 20:33N 30°46' E 032°20'9 8.7
2015-May-26 19:33N 30°55' E 032°19'1110.7
2015-May-26 18:34N 31°05' E 032°18'10 9.7
2015-May-26 17:34N 31°15' E 032°21'9 9.3
2015-May-26 16:34N 31°24' E 032°22'3 3.1
2015-May-26 15:34N 31°25' E 032°19'2 1.8
2015-May-26 14:32N 31°24' E 032°16'0 0.0
2015-May-26 13:32N 31°24' E 032°16'0 0.0
2015-May-26 12:31N 31°24' E 032°16'0 0.0
2015-May-26 11:31N 31°24' E 032°16'0 0.0
2015-May-26 10:31N 31°24' E 032°16'0 0.0
2015-May-26 09:33N 31°24' E 032°16'0 0.0
2015-May-26 08:27N 31°24' E 032°16'0 0.0
2015-May-26 07:32N 31°24' E 032°16'0 0.0
2015-May-26 06:29N 31°24' E 032°16'0 0.0
2015-May-26 05:28N 31°24' E 032°16'0 0.0
2015-May-26 04:31N 31°24' E 032°16'0 0.0
2015-May-26 03:27N 31°24' E 032°16'0 0.0
2015-May-26 02:30N 31°24' E 032°16'0 0.0
2015-May-26 01:33N 31°24' E 032°16'0 0.0
2015-May-25 23:29N 31°24' E 032°16'0 0.0
2015-May-25 22:28N 31°24' E 032°16'0 0.0
2015-May-25 20:27N 31°24' E 032°16'0 0.0
2015-May-25 19:33N 31°24' E 032°16'0 0.0
2015-May-25 18:11N 31°24' E 032°16'0 0.0
2015-May-25 17:32N 31°24' E 032°16'0 0.0
2015-May-25 16:23N 31°24' E 032°16'0 0.0
2015-May-25 15:31N 31°24' E 032°16'0 0.0
2015-May-25 14:31N 31°24' E 032°16'0 0.0
2015-May-25 10:29N 31°24' E 032°16'7 7.3
2015-May-25 09:33N 31°31' E 032°17'1312.5
2015-May-25 08:33N 31°39' E 032°29'1111.6
2015-May-25 07:33N 31°49' E 032°36'1917.1
2015-May-25 06:27N 32°07' E 032°40'1213.0
2015-May-25 05:33N 32°19' E 032°42'1212.4
2015-May-25 04:33N 32°31' E 032°45'1212.4
2015-May-25 03:33N 32°43' E 032°48'1212.5
2015-May-25 02:33N 32°56' E 032°50'1312.6
2015-May-25 01:33N 33°08' E 032°53'1312.8
2015-May-25 00:33N 33°21' E 032°55'1312.8
2015-May-24 23:33N 33°33' E 032°58'1312.9
2015-May-24 22:33N 33°46' E 033°00'1313.2
2015-May-24 21:33N 33°59' E 033°03'1313.1
2015-May-24 20:32N 34°12' E 033°06'1313.4
2015-May-24 19:33N 34°25' E 033°08'1212.0
2015-May-24 18:33N 34°37' E 033°06'4 4.1
2015-May-24 17:33N 34°39' E 033°01'0 0.0
2015-May-24 16:32N 34°39' E 033°01'0 0.0
2015-May-24 15:32N 34°39' E 033°01'0 0.0
2015-May-24 14:31N 34°39' E 033°01'0 0.0
2015-May-24 13:31N 34°39' E 033°01'0 0.0
2015-May-24 12:33N 34°39' E 033°01'5 5.4
2015-May-24 11:33N 34°36' E 033°07'10 9.9
2015-May-24 10:33N 34°27' E 033°02'1212.0
2015-May-24 09:34N 34°23' E 032°48'1312.7
2015-May-24 08:33N 34°21' E 032°33'1312.8
2015-May-24 07:33N 34°18' E 032°18'1515.4
2015-May-24 06:34N 34°16' E 031°60'1615.8
2015-May-24 05:34N 34°13' E 031°41'1413.8
2015-May-24 04:33N 34°10' E 031°24'1913.8
2015-May-24 03:09N 34°07' E 031°01'913.9
2015-May-24 02:29N 34°05' E 030°50'6113.9
2015-May-23 22:04N 33°60' E 029°36'814.7
2015-May-23 21:33N 33°60' E 029°27'4614.5
2015-May-23 18:23N 34°03' E 028°32'1214.1
2015-May-23 17:33N 34°05' E 028°18'1414.2
2015-May-23 16:33N 34°07' E 028°01'1414.2
2015-May-23 15:33N 34°09' E 027°44'64012.9
2015-May-21 14:04N 36°14' E 014°56'712.4
2015-May-21 13:32N 36°15' E 014°48'1312.8
2015-May-21 12:34N 36°18' E 014°33'1312.5
2015-May-21 11:34N 36°22' E 014°19'1312.6
2015-May-21 10:33N 36°27' E 014°04'1313.3
2015-May-21 09:33N 36°32' E 013°48'1313.3
2015-May-21 08:33N 36°37' E 013°33'1313.4
2015-May-21 07:34N 36°42' E 013°18'1313.0
2015-May-21 06:33N 36°47' E 013°02'1312.9
2015-May-21 05:33N 36°51' E 012°47'52613.3
2015-May-19 14:05N 36°60' E 001°49'712.6
2015-May-19 13:33N 36°56' E 001°42'1613.3
2015-May-19 12:19N 36°56' E 001°22'1012.5
2015-May-19 11:33N 36°55' E 001°10'1313.0
2015-May-19 10:34N 36°49' E 000°56'1818.2
2015-May-19 09:33N 36°45' E 000°34'1313.3
2015-May-19 08:33N 36°42' E 000°17'1313.3
2015-May-19 07:33N 36°40' E 000°01'1313.4
2015-May-19 06:33N 36°38' W 000°15'1513.3
2015-May-19 05:25N 36°35' W 000°34'1313.4
2015-May-19 04:28N 36°33' W 000°50'3013.6
2015-May-19 02:17N 36°28' W 001°26'1013.4
2015-May-19 01:30N 36°26' W 001°39'1313.3
2015-May-19 00:33N 36°24' W 001°54'1312.6
2015-May-18 23:33N 36°22' W 002°10'1312.9
2015-May-18 22:31N 36°20' W 002°26'1313.5
2015-May-18 21:32N 36°18' W 002°42'1513.0
2015-May-18 20:21N 36°16' W 003°01'10713.6
2015-May-18 12:30N 36°00' W 005°12'1414.7
2015-May-18 11:33N 35°56' W 005°29'15412.5
2015-May-17 23:17N 36°23' W 008°36'1013.3
2015-May-17 22:33N 36°26' W 008°48'1312.8
2015-May-17 21:33N 36°30' W 009°03'1312.9
2015-May-17 20:33N 36°34' W 009°18'1412.9
2015-May-17 19:29N 36°44' W 009°31'1212.9
2015-May-17 18:33N 36°55' W 009°37'1313.2
2015-May-17 17:33N 37°07' W 009°43'1413.4
2015-May-17 16:33N 37°19' W 009°51'1413.8
2015-May-17 15:33N 37°31' W 009°60'1413.9
2015-May-17 14:33N 37°43' W 010°09'1413.7
2015-May-17 13:32N 37°56' W 010°15'1414.0
2015-May-17 12:33N 38°10' W 010°19'1313.1
2015-May-17 11:33N 38°22' W 010°14'1413.7
2015-May-17 10:33N 38°34' W 010°05'1413.9
2015-May-17 09:33N 38°48' W 010°07'2017.9
2015-May-17 08:26N 39°08' W 010°07'1313.5
2015-May-17 07:27N 39°21' W 010°07'  
Track history (hours):
 
Tides and Currents Weather Stations Pressure Air Temp Water Temp Dewpoint Dewpoint Depression Visibility Wind Speed Wind Dir Waves Ship Positions

Hartland Point

Last reported at 2015-May-26 21:34 UTC. Time now 2015-May-29 14:26 UTC.
Position N 30°38' E 032°20'.

Length 193 m; draft 5.7 m.

Type: Ship. MMSI: 235505000.

Date/timePositionNaut miles runAvg speedWind from/ knotsBaromVisibWave heightAir tempDewpointWater temp
2015-May-26 21:34N 30°38' E 032°20'8 7.8
2015-May-26 20:33N 30°46' E 032°20'9 8.7
2015-May-26 19:33N 30°55' E 032°19'1110.7
2015-May-26 18:34N 31°05' E 032°18'10 9.7
2015-May-26 17:34N 31°15' E 032°21'9 9.3
2015-May-26 16:34N 31°24' E 032°22'3 3.1
2015-May-26 15:34N 31°25' E 032°19'2 1.8
2015-May-26 14:32N 31°24' E 032°16'0 0.0
2015-May-26 13:32N 31°24' E 032°16'0 0.0
2015-May-26 12:31N 31°24' E 032°16'0 0.0
2015-May-26 11:31N 31°24' E 032°16'0 0.0
2015-May-26 10:31N 31°24' E 032°16'0 0.0
2015-May-26 09:33N 31°24' E 032°16'0 0.0
2015-May-26 08:27N 31°24' E 032°16'0 0.0
2015-May-26 07:32N 31°24' E 032°16'0 0.0
2015-May-26 06:29N 31°24' E 032°16'0 0.0
2015-May-26 05:28N 31°24' E 032°16'0 0.0
2015-May-26 04:31N 31°24' E 032°16'0 0.0
2015-May-26 03:27N 31°24' E 032°16'0 0.0
2015-May-26 02:30N 31°24' E 032°16'0 0.0
2015-May-26 01:33N 31°24' E 032°16'0 0.0
2015-May-25 23:29N 31°24' E 032°16'0 0.0
2015-May-25 22:28N 31°24' E 032°16'0 0.0
2015-May-25 20:27N 31°24' E 032°16'0 0.0
2015-May-25 19:33N 31°24' E 032°16'0 0.0
2015-May-25 18:11N 31°24' E 032°16'0 0.0
2015-May-25 17:32N 31°24' E 032°16'0 0.0
2015-May-25 16:23N 31°24' E 032°16'0 0.0
2015-May-25 15:31N 31°24' E 032°16'0 0.0
2015-May-25 14:31N 31°24' E 032°16'0 0.0
2015-May-25 10:29N 31°24' E 032°16'7 7.3
2015-May-25 09:33N 31°31' E 032°17'1312.5
2015-May-25 08:33N 31°39' E 032°29'1111.6
2015-May-25 07:33N 31°49' E 032°36'1917.1
2015-May-25 06:27N 32°07' E 032°40'1213.0
2015-May-25 05:33N 32°19' E 032°42'1212.4
2015-May-25 04:33N 32°31' E 032°45'1212.4
2015-May-25 03:33N 32°43' E 032°48'1212.5
2015-May-25 02:33N 32°56' E 032°50'1312.6
2015-May-25 01:33N 33°08' E 032°53'1312.8
2015-May-25 00:33N 33°21' E 032°55'1312.8
2015-May-24 23:33N 33°33' E 032°58'1312.9
2015-May-24 22:33N 33°46' E 033°00'1313.2
2015-May-24 21:33N 33°59' E 033°03'1313.1
2015-May-24 20:32N 34°12' E 033°06'1313.4
2015-May-24 19:33N 34°25' E 033°08'1212.0
2015-May-24 18:33N 34°37' E 033°06'4 4.1
2015-May-24 17:33N 34°39' E 033°01'0 0.0
2015-May-24 16:32N 34°39' E 033°01'0 0.0
2015-May-24 15:32N 34°39' E 033°01'0 0.0
2015-May-24 14:31N 34°39' E 033°01'0 0.0
2015-May-24 13:31N 34°39' E 033°01'0 0.0
2015-May-24 12:33N 34°39' E 033°01'5 5.4
2015-May-24 11:33N 34°36' E 033°07'10 9.9
2015-May-24 10:33N 34°27' E 033°02'1212.0
2015-May-24 09:34N 34°23' E 032°48'1312.7
2015-May-24 08:33N 34°21' E 032°33'1312.8
2015-May-24 07:33N 34°18' E 032°18'1515.4
2015-May-24 06:34N 34°16' E 031°60'1615.8
2015-May-24 05:34N 34°13' E 031°41'1413.8
2015-May-24 04:33N 34°10' E 031°24'1913.8
2015-May-24 03:09N 34°07' E 031°01'913.9
2015-May-24 02:29N 34°05' E 030°50'6113.9
2015-May-23 22:04N 33°60' E 029°36'814.7
2015-May-23 21:33N 33°60' E 029°27'4614.5
2015-May-23 18:23N 34°03' E 028°32'1214.1
2015-May-23 17:33N 34°05' E 028°18'1414.2
2015-May-23 16:33N 34°07' E 028°01'1414.2
2015-May-23 15:33N 34°09' E 027°44'64012.9
2015-May-21 14:04N 36°14' E 014°56'712.4
2015-May-21 13:32N 36°15' E 014°48'1312.8
2015-May-21 12:34N 36°18' E 014°33'1312.5
2015-May-21 11:34N 36°22' E 014°19'1312.6
2015-May-21 10:33N 36°27' E 014°04'1313.3
2015-May-21 09:33N 36°32' E 013°48'1313.3
2015-May-21 08:33N 36°37' E 013°33'1313.4
2015-May-21 07:34N 36°42' E 013°18'1313.0
2015-May-21 06:33N 36°47' E 013°02'1312.9
2015-May-21 05:33N 36°51' E 012°47'52613.3
2015-May-19 14:05N 36°60' E 001°49'712.6
2015-May-19 13:33N 36°56' E 001°42'1613.3
2015-May-19 12:19N 36°56' E 001°22'1012.5
2015-May-19 11:33N 36°55' E 001°10'1313.0
2015-May-19 10:34N 36°49' E 000°56'1818.2
2015-May-19 09:33N 36°45' E 000°34'1313.3
2015-May-19 08:33N 36°42' E 000°17'1313.3
2015-May-19 07:33N 36°40' E 000°01'1313.4
2015-May-19 06:33N 36°38' W 000°15'1513.3
2015-May-19 05:25N 36°35' W 000°34'1313.4
2015-May-19 04:28N 36°33' W 000°50'3013.6
2015-May-19 02:17N 36°28' W 001°26'1013.4
2015-May-19 01:30N 36°26' W 001°39'1313.3
2015-May-19 00:33N 36°24' W 001°54'1312.6
2015-May-18 23:33N 36°22' W 002°10'1312.9
2015-May-18 22:31N 36°20' W 002°26'1313.5
2015-May-18 21:32N 36°18' W 002°42'1513.0
2015-May-18 20:21N 36°16' W 003°01'10713.6
2015-May-18 12:30N 36°00' W 005°12'1414.7
2015-May-18 11:33N 35°56' W 005°29'15412.5
2015-May-17 23:17N 36°23' W 008°36'1013.3
2015-May-17 22:33N 36°26' W 008°48'1312.8
2015-May-17 21:33N 36°30' W 009°03'1312.9
2015-May-17 20:33N 36°34' W 009°18'1412.9
2015-May-17 19:29N 36°44' W 009°31'1212.9
2015-May-17 18:33N 36°55' W 009°37'1313.2
2015-May-17 17:33N 37°07' W 009°43'1413.4
2015-May-17 16:33N 37°19' W 009°51'1413.8
2015-May-17 15:33N 37°31' W 009°60'1413.9
2015-May-17 14:33N 37°43' W 010°09'1413.7
2015-May-17 13:32N 37°56' W 010°15'1414.0
2015-May-17 12:33N 38°10' W 010°19'1313.1
2015-May-17 11:33N 38°22' W 010°14'1413.7
2015-May-17 10:33N 38°34' W 010°05'1413.9
2015-May-17 09:33N 38°48' W 010°07'2017.9
2015-May-17 08:26N 39°08' W 010°07'1313.5
2015-May-17 07:27N 39°21' W 010°07'  

Dump ship's entire track history